Terminal Aerodrome Forecast
Issued by NWS Corpus Christi, TX

Home | Current Version | Previous Version | Text Only | Print | Product List | Glossary On
Versions: 1 2 3 4 5 6 7 8 9 10 11 12
000
FTUS44 KCRP 151139
TAFVCT
TAF
KVCT 151139Z 1512/1612 36013KT P6SM -RA SCT030 OVC060
     FM151600 36012KT P6SM VCSH OVC050
      TEMPO 1516/1520 -RA OVC040
     FM160200 27004KT P6SM OVC100=

USA.gov is the U.S. government's official web portal to all federal, state and local government web resources and services.